Inaja, Brazil
Current Conditions -  °F | °C
As of 10:00 AM on Saturday 20 Dec 2014 (Local Time) from SBMG Reporting Station
Few Clouds Few Clouds  
Wind Chill: 82°   Ceiling: Unl
Heat Index: 87°   Visibility: 6mi
Dew Point: 72°   Wind: 15mph
Humidity: 70%   Direction: 30°NNE
Pressure: 29.83"   Gusts: NA
Location:  22.75°S, 52.2°W
Report Text: SBMG 201200Z 03013KT 9999 FEW025 28/22 Q1010
Loading
Personal Weather Stations






























Interactive Weather Map New forecast layout! Learn more

10-Day Weather Forecast

Advertisements
Track Severe Weather on mobile